sensor_id;sensor_type;location;lat;lon;timestamp;noise_LAeq;noise_LA_min;noise_LA_max;noise_LA01;noise_LA95
64545;Laerm;50936;51.660;5.616;2023-06-22T00:01:21;37.35;29.92;41.96;;
64545;Laerm;50936;51.660;5.616;2023-06-22T00:03:50;37.10;31.68;39.81;;
64545;Laerm;50936;51.660;5.616;2023-06-22T00:06:17;37.70;30.89;43.63;;
64545;Laerm;50936;51.660;5.616;2023-06-22T00:08:43;37.15;31.68;41.14;;
64545;Laerm;50936;51.660;5.616;2023-06-22T00:11:11;37.10;32.35;41.96;;
64545;Laerm;50936;51.660;5.616;2023-06-22T00:13:38;37.21;32.35;53.50;;
64545;Laerm;50936;51.660;5.616;2023-06-22T00:16:08;37.11;30.89;41.06;;
64545;Laerm;50936;51.660;5.616;2023-06-22T00:18:35;37.14;26.91;40.43;;
64545;Laerm;50936;51.660;5.616;2023-06-22T00:21:02;37.15;31.68;41.68;;
64545;Laerm;50936;51.660;5.616;2023-06-22T00:23:29;37.86;31.68;43.04;;
64545;Laerm;50936;51.660;5.616;2023-06-22T00:26:00;37.18;29.92;40.98;;
64545;Laerm;50936;51.660;5.616;2023-06-22T00:28:27;37.39;32.35;40.71;;
64545;Laerm;50936;51.660;5.616;2023-06-22T00:30:55;38.32;32.35;48.23;;
64545;Laerm;50936;51.660;5.616;2023-06-22T00:33:24;37.08;31.68;39.70;;
64545;Laerm;50936;51.660;5.616;2023-06-22T00:35:51;37.11;31.68;39.78;;
64545;Laerm;50936;51.660;5.616;2023-06-22T00:38:20;37.45;30.89;42.47;;
64545;Laerm;50936;51.660;5.616;2023-06-22T00:40:47;37.06;29.92;42.47;;
64545;Laerm;50936;51.660;5.616;2023-06-22T00:43:14;37.54;28.67;41.53;;
64545;Laerm;50936;51.660;5.616;2023-06-22T00:45:41;38.38;33.44;42.41;;
64545;Laerm;50936;51.660;5.616;2023-06-22T00:48:09;38.32;34.31;41.38;;
64545;Laerm;50936;51.660;5.616;2023-06-22T00:50:36;38.50;34.31;41.68;;
64545;Laerm;50936;51.660;5.616;2023-06-22T00:53:08;38.45;33.90;40.98;;
64545;Laerm;50936;51.660;5.616;2023-06-22T00:55:41;38.41;32.93;43.14;;
64545;Laerm;50936;51.660;5.616;2023-06-22T00:58:12;38.36;31.68;41.68;;
64545;Laerm;50936;51.660;5.616;2023-06-22T01:00:41;38.27;30.89;41.14;;
64545;Laerm;50936;51.660;5.616;2023-06-22T01:03:09;38.11;32.93;41.68;;
64545;Laerm;50936;51.660;5.616;2023-06-22T01:05:38;37.22;31.68;40.13;;
64545;Laerm;50936;51.660;5.616;2023-06-22T01:08:31;38.48;33.90;41.14;;
64545;Laerm;50936;51.660;5.616;2023-06-22T01:11:12;38.93;33.44;42.24;;
64545;Laerm;50936;51.660;5.616;2023-06-22T01:14:03;39.05;34.69;42.03;;
64545;Laerm;50936;51.660;5.616;2023-06-22T01:16:40;39.21;34.69;41.96;;
64545;Laerm;50936;51.660;5.616;2023-06-22T01:19:44;39.15;34.31;41.68;;
64545;Laerm;50936;51.660;5.616;2023-06-22T01:22:20;39.16;34.34;42.03;;
64545;Laerm;50936;51.660;5.616;2023-06-22T01:25:12;39.08;33.90;41.82;;
64545;Laerm;50936;51.660;5.616;2023-06-22T01:27:56;39.20;34.69;41.94;;
64545;Laerm;50936;51.660;5.616;2023-06-22T01:30:30;39.23;34.69;43.09;;
64545;Laerm;50936;51.660;5.616;2023-06-22T01:33:04;39.16;34.69;42.76;;
64545;Laerm;50936;51.660;5.616;2023-06-22T01:35:33;39.08;34.69;41.89;;
64545;Laerm;50936;51.660;5.616;2023-06-22T01:38:00;39.11;35.04;41.82;;
64545;Laerm;50936;51.660;5.616;2023-06-22T01:40:29;39.16;34.69;44.15;;
64545;Laerm;50936;51.660;5.616;2023-06-22T01:42:57;39.10;34.31;41.75;;
64545;Laerm;50936;51.660;5.616;2023-06-22T01:45:26;38.92;33.44;41.68;;
64545;Laerm;50936;51.660;5.616;2023-06-22T01:47:54;37.53;30.89;41.22;;
64545;Laerm;50936;51.660;5.616;2023-06-22T01:50:22;37.10;31.68;39.70;;
64545;Laerm;50936;51.660;5.616;2023-06-22T01:52:48;37.13;31.68;39.92;;
64545;Laerm;50936;51.660;5.616;2023-06-22T01:55:15;37.13;30.89;40.03;;
64545;Laerm;50936;51.660;5.616;2023-06-22T01:57:42;37.19;32.35;41.82;;
64545;Laerm;50936;51.660;5.616;2023-06-22T02:00:16;37.20;31.68;40.33;;
64545;Laerm;50936;51.660;5.616;2023-06-22T02:03:08;37.25;31.68;41.96;;
64545;Laerm;50936;51.660;5.616;2023-06-22T02:05:48;37.18;31.68;39.92;;
64545;Laerm;50936;51.660;5.616;2023-06-22T02:08:26;37.33;30.89;41.75;;
64545;Laerm;50936;51.660;5.616;2023-06-22T02:11:00;37.21;28.67;40.53;;
64545;Laerm;50936;51.660;5.616;2023-06-22T02:13:29;37.55;30.89;41.96;;
64545;Laerm;50936;51.660;5.616;2023-06-22T02:15:57;37.19;29.92;40.33;;
64545;Laerm;50936;51.660;5.616;2023-06-22T02:18:24;37.24;29.92;42.35;;
64545;Laerm;50936;51.660;5.616;2023-06-22T02:20:52;37.54;32.35;40.80;;
64545;Laerm;50936;51.660;5.616;2023-06-22T02:23:19;37.63;31.68;41.38;;
64545;Laerm;50936;51.660;5.616;2023-06-22T02:25:46;38.78;34.31;42.76;;
64545;Laerm;50936;51.660;5.616;2023-06-22T02:28:14;39.14;34.31;42.88;;
64545;Laerm;50936;51.660;5.616;2023-06-22T02:30:42;39.09;33.44;42.47;;
64545;Laerm;50936;51.660;5.616;2023-06-22T02:33:08;38.99;34.31;43.81;;
64545;Laerm;50936;51.660;5.616;2023-06-22T02:35:35;38.96;34.31;42.47;;
64545;Laerm;50936;51.660;5.616;2023-06-22T02:38:04;38.83;33.90;41.96;;
64545;Laerm;50936;51.660;5.616;2023-06-22T02:40:31;38.66;34.31;42.47;;
64545;Laerm;50936;51.660;5.616;2023-06-22T02:42:58;38.15;31.68;42.88;;
64545;Laerm;50936;51.660;5.616;2023-06-22T02:45:29;37.19;29.92;40.13;;
64545;Laerm;50936;51.660;5.616;2023-06-22T02:47:56;37.46;32.35;42.09;;
64545;Laerm;50936;51.660;5.616;2023-06-22T02:50:23;37.42;30.89;41.53;;
64545;Laerm;50936;51.660;5.616;2023-06-22T02:52:52;37.45;29.92;41.30;;
64545;Laerm;50936;51.660;5.616;2023-06-22T02:55:19;37.47;31.68;42.29;;
64545;Laerm;50936;51.660;5.616;2023-06-22T02:57:53;37.24;31.68;40.03;;
64545;Laerm;50936;51.660;5.616;2023-06-22T03:00:21;37.40;30.89;41.26;;
64545;Laerm;50936;51.660;5.616;2023-06-22T03:02:49;37.45;30.89;43.86;;
64545;Laerm;50936;51.660;5.616;2023-06-22T03:05:17;37.51;30.89;43.54;;
64545;Laerm;50936;51.660;5.616;2023-06-22T03:07:46;37.33;31.68;40.53;;
64545;Laerm;50936;51.660;5.616;2023-06-22T03:10:14;37.56;30.89;42.03;;
64545;Laerm;50936;51.660;5.616;2023-06-22T03:12:42;37.29;30.89;44.19;;
64545;Laerm;50936;51.660;5.616;2023-06-22T03:15:12;37.59;28.67;42.03;;
64545;Laerm;50936;51.660;5.616;2023-06-22T03:17:40;37.62;31.68;42.03;;
64545;Laerm;50936;51.660;5.616;2023-06-22T03:20:10;37.63;32.35;41.61;;
64545;Laerm;50936;51.660;5.616;2023-06-22T03:22:39;37.80;32.35;43.54;;
64545;Laerm;50936;51.660;5.616;2023-06-22T03:25:09;37.94;32.35;41.82;;
64545;Laerm;50936;51.660;5.616;2023-06-22T03:27:42;39.27;35.04;43.86;;
64545;Laerm;50936;51.660;5.616;2023-06-22T03:30:12;39.31;35.04;42.47;;
64545;Laerm;50936;51.660;5.616;2023-06-22T03:32:39;39.41;35.36;42.98;;
64545;Laerm;50936;51.660;5.616;2023-06-22T03:35:06;39.21;34.31;42.35;;
64545;Laerm;50936;51.660;5.616;2023-06-22T03:37:36;39.29;34.31;43.39;;
64545;Laerm;50936;51.660;5.616;2023-06-22T03:40:03;39.27;35.36;42.65;;
64545;Laerm;50936;51.660;5.616;2023-06-22T03:42:34;39.19;35.36;42.71;;
64545;Laerm;50936;51.660;5.616;2023-06-22T03:45:05;39.29;35.04;42.03;;
64545;Laerm;50936;51.660;5.616;2023-06-22T03:47:32;39.63;34.31;61.05;;
64545;Laerm;50936;51.660;5.616;2023-06-22T03:49:59;39.26;35.66;42.09;;
64545;Laerm;50936;51.660;5.616;2023-06-22T03:52:26;39.10;35.31;41.96;;
64545;Laerm;50936;51.660;5.616;2023-06-22T03:54:53;39.43;35.04;43.39;;
64545;Laerm;50936;51.660;5.616;2023-06-22T03:57:20;38.93;34.69;41.53;;
64545;Laerm;50936;51.660;5.616;2023-06-22T03:59:47;39.04;34.69;45.69;;
64545;Laerm;50936;51.660;5.616;2023-06-22T04:02:14;42.75;33.44;63.65;;
64545;Laerm;50936;51.660;5.616;2023-06-22T04:04:41;40.87;36.45;48.39;;
64545;Laerm;50936;51.660;5.616;2023-06-22T04:07:08;41.70;36.45;53.02;;
64545;Laerm;50936;51.660;5.616;2023-06-22T04:09:35;41.34;36.20;53.41;;
64545;Laerm;50936;51.660;5.616;2023-06-22T04:12:02;40.66;35.94;52.95;;
64545;Laerm;50936;51.660;5.616;2023-06-22T04:14:29;41.21;36.45;49.28;;
64545;Laerm;50936;51.660;5.616;2023-06-22T04:16:58;41.54;37.12;50.87;;
64545;Laerm;50936;51.660;5.616;2023-06-22T04:19:25;41.22;36.91;47.50;;
64545;Laerm;50936;51.660;5.616;2023-06-22T04:21:52;40.81;36.69;44.27;;
64545;Laerm;50936;51.660;5.616;2023-06-22T04:24:19;40.97;36.69;47.50;;
64545;Laerm;50936;51.660;5.616;2023-06-22T04:26:45;41.04;36.20;45.66;;
64545;Laerm;50936;51.660;5.616;2023-06-22T04:29:14;42.32;37.12;53.98;;
64545;Laerm;50936;51.660;5.616;2023-06-22T04:31:40;42.73;37.12;51.25;;
64545;Laerm;50936;51.660;5.616;2023-06-22T04:34:08;46.04;37.32;62.58;;
64545;Laerm;50936;51.660;5.616;2023-06-22T04:36:40;42.95;36.20;56.02;;
64545;Laerm;50936;51.660;5.616;2023-06-22T04:39:10;40.33;36.69;44.03;;
64545;Laerm;50936;51.660;5.616;2023-06-22T04:41:39;42.06;36.69;62.17;;
64545;Laerm;50936;51.660;5.616;2023-06-22T04:44:18;41.65;37.12;54.84;;
64545;Laerm;50936;51.660;5.616;2023-06-22T04:47:01;41.99;36.91;52.96;;
64545;Laerm;50936;51.660;5.616;2023-06-22T04:49:30;42.64;37.70;57.45;;
64545;Laerm;50936;51.660;5.616;2023-06-22T04:52:07;42.34;36.69;50.64;;
64545;Laerm;50936;51.660;5.616;2023-06-22T04:54:36;41.75;37.12;46.73;;
64545;Laerm;50936;51.660;5.616;2023-06-22T04:57:06;42.71;37.52;50.39;;
64545;Laerm;50936;51.660;5.616;2023-06-22T04:59:38;45.60;36.10;72.52;;
64545;Laerm;50936;51.660;5.616;2023-06-22T05:02:09;44.03;37.70;66.26;;
64545;Laerm;50936;51.660;5.616;2023-06-22T05:04:36;43.18;37.88;61.36;;
64545;Laerm;50936;51.660;5.616;2023-06-22T05:07:06;43.77;36.91;67.45;;
64545;Laerm;50936;51.660;5.616;2023-06-22T05:09:33;45.26;38.05;67.46;;
64545;Laerm;50936;51.660;5.616;2023-06-22T05:12:01;45.99;38.52;59.71;;
64545;Laerm;50936;51.660;5.616;2023-06-22T05:14:29;46.24;38.18;65.90;;
64545;Laerm;50936;51.660;5.616;2023-06-22T05:16:57;52.99;38.52;68.59;;
64545;Laerm;50936;51.660;5.616;2023-06-22T05:19:30;51.30;38.21;67.67;;
64545;Laerm;50936;51.660;5.616;2023-06-22T05:22:01;51.92;39.99;70.57;;
64545;Laerm;50936;51.660;5.616;2023-06-22T05:24:28;54.76;39.58;71.19;;
64545;Laerm;50936;51.660;5.616;2023-06-22T05:26:55;54.22;40.03;72.15;;
64545;Laerm;50936;51.660;5.616;2023-06-22T05:29:22;53.35;38.95;79.13;;
64545;Laerm;50936;51.660;5.616;2023-06-22T05:31:49;55.88;39.21;84.85;;
64545;Laerm;50936;51.660;5.616;2023-06-22T05:34:16;52.72;39.34;66.05;;
64545;Laerm;50936;51.660;5.616;2023-06-22T05:36:43;54.97;39.81;72.92;;
64545;Laerm;50936;51.660;5.616;2023-06-22T05:39:14;52.28;39.92;68.56;;
64545;Laerm;50936;51.660;5.616;2023-06-22T05:41:42;49.48;39.58;62.01;;
64545;Laerm;50936;51.660;5.616;2023-06-22T05:44:12;50.87;40.54;64.04;;
64545;Laerm;50936;51.660;5.616;2023-06-22T05:46:43;50.32;39.58;64.08;;
64545;Laerm;50936;51.660;5.616;2023-06-22T05:49:14;49.25;39.92;64.33;;
64545;Laerm;50936;51.660;5.616;2023-06-22T05:51:42;51.56;40.03;65.33;;
64545;Laerm;50936;51.660;5.616;2023-06-22T05:54:09;50.54;40.27;69.87;;
64545;Laerm;50936;51.660;5.616;2023-06-22T05:56:37;51.07;38.95;66.13;;
64545;Laerm;50936;51.660;5.616;2023-06-22T05:59:04;51.90;39.92;75.75;;
64545;Laerm;50936;51.660;5.616;2023-06-22T06:01:31;49.13;40.23;64.91;;
64545;Laerm;50936;51.660;5.616;2023-06-22T06:04:03;52.02;38.21;75.23;;
64545;Laerm;50936;51.660;5.616;2023-06-22T06:06:36;53.91;40.03;80.79;;
64545;Laerm;50936;51.660;5.616;2023-06-22T06:09:04;54.39;41.96;76.11;;
64545;Laerm;50936;51.660;5.616;2023-06-22T06:11:31;52.82;42.22;75.33;;
64545;Laerm;50936;51.660;5.616;2023-06-22T06:13:58;52.36;41.82;67.70;;
64545;Laerm;50936;51.660;5.616;2023-06-22T06:16:25;55.37;41.96;73.70;;
64545;Laerm;50936;51.660;5.616;2023-06-22T06:18:52;53.52;40.71;76.64;;
64545;Laerm;50936;51.660;5.616;2023-06-22T06:21:22;45.08;41.22;66.86;;
64545;Laerm;50936;51.660;5.616;2023-06-22T06:23:49;47.14;41.82;61.54;;
64545;Laerm;50936;51.660;5.616;2023-06-22T06:26:16;46.76;41.06;69.14;;
64545;Laerm;50936;51.660;5.616;2023-06-22T06:28:54;52.29;40.80;79.05;;
64545;Laerm;50936;51.660;5.616;2023-06-22T06:31:21;49.64;41.38;71.04;;
64545;Laerm;50936;51.660;5.616;2023-06-22T06:33:49;47.43;41.53;65.07;;
64545;Laerm;50936;51.660;5.616;2023-06-22T06:36:16;46.43;40.62;59.34;;
64545;Laerm;50936;51.660;5.616;2023-06-22T06:38:43;45.61;39.70;57.80;;
64545;Laerm;50936;51.660;5.616;2023-06-22T06:41:10;44.91;39.81;64.84;;
64545;Laerm;50936;51.660;5.616;2023-06-22T06:43:37;48.70;40.43;72.95;;
64545;Laerm;50936;51.660;5.616;2023-06-22T06:46:04;48.13;41.46;72.91;;
64545;Laerm;50936;51.660;5.616;2023-06-22T06:48:31;47.12;41.14;63.87;;
64545;Laerm;50936;51.660;5.616;2023-06-22T06:50:58;45.73;40.98;59.40;;
64545;Laerm;50936;51.660;5.616;2023-06-22T06:53:25;46.89;41.68;63.41;;
64545;Laerm;50936;51.660;5.616;2023-06-22T06:55:52;47.25;40.98;65.51;;
64545;Laerm;50936;51.660;5.616;2023-06-22T06:58:19;49.06;41.30;71.30;;
64545;Laerm;50936;51.660;5.616;2023-06-22T07:00:46;60.14;40.89;87.61;;
64545;Laerm;50936;51.660;5.616;2023-06-22T07:03:13;52.45;40.80;83.28;;
64545;Laerm;50936;51.660;5.616;2023-06-22T07:05:40;49.96;39.21;74.07;;
64545;Laerm;50936;51.660;5.616;2023-06-22T07:08:07;49.51;39.92;79.27;;
64545;Laerm;50936;51.660;5.616;2023-06-22T07:10:34;44.70;39.70;60.09;;
64545;Laerm;50936;51.660;5.616;2023-06-22T07:13:01;49.78;39.81;73.51;;
64545;Laerm;50936;51.660;5.616;2023-06-22T07:15:28;48.06;40.23;73.07;;
64545;Laerm;50936;51.660;5.616;2023-06-22T07:17:55;46.98;41.06;63.64;;
64545;Laerm;50936;51.660;5.616;2023-06-22T07:20:22;46.38;40.13;67.33;;
64545;Laerm;50936;51.660;5.616;2023-06-22T07:22:48;47.16;40.71;67.79;;
64545;Laerm;50936;51.660;5.616;2023-06-22T07:25:15;46.28;39.99;66.30;;
64545;Laerm;50936;51.660;5.616;2023-06-22T07:28:00;47.74;40.71;71.68;;
64545;Laerm;50936;51.660;5.616;2023-06-22T07:30:29;63.42;41.46;91.67;;
64545;Laerm;50936;51.660;5.616;2023-06-22T07:32:58;48.46;40.43;70.39;;
64545;Laerm;50936;51.660;5.616;2023-06-22T07:35:25;46.86;39.58;69.22;;
64545;Laerm;50936;51.660;5.616;2023-06-22T07:37:52;46.43;41.14;64.58;;
64545;Laerm;50936;51.660;5.616;2023-06-22T07:40:19;46.35;40.98;68.24;;
64545;Laerm;50936;51.660;5.616;2023-06-22T07:42:46;44.63;40.13;52.58;;
64545;Laerm;50936;51.660;5.616;2023-06-22T07:45:14;45.79;40.33;66.77;;
64545;Laerm;50936;51.660;5.616;2023-06-22T07:47:41;44.71;40.33;52.23;;
64545;Laerm;50936;51.660;5.616;2023-06-22T07:50:09;44.71;39.81;53.36;;
64545;Laerm;50936;51.660;5.616;2023-06-22T07:52:36;47.86;39.92;58.63;;
64545;Laerm;50936;51.660;5.616;2023-06-22T07:55:03;45.66;40.03;57.54;;
64545;Laerm;50936;51.660;5.616;2023-06-22T07:57:30;53.95;39.81;82.65;;
64545;Laerm;50936;51.660;5.616;2023-06-22T08:00:04;57.30;39.21;80.08;;
64545;Laerm;50936;51.660;5.616;2023-06-22T08:02:40;51.84;39.08;79.74;;
64545;Laerm;50936;51.660;5.616;2023-06-22T08:05:09;47.35;39.58;73.61;;
64545;Laerm;50936;51.660;5.616;2023-06-22T08:07:48;48.04;39.81;72.34;;
64545;Laerm;50936;51.660;5.616;2023-06-22T08:10:15;50.89;40.89;69.60;;
64545;Laerm;50936;51.660;5.616;2023-06-22T08:12:42;48.08;39.81;69.06;;
64545;Laerm;50936;51.660;5.616;2023-06-22T08:15:09;46.75;41.68;60.76;;
64545;Laerm;50936;51.660;5.616;2023-06-22T08:17:40;49.21;40.54;74.21;;
64545;Laerm;50936;51.660;5.616;2023-06-22T08:20:08;50.39;40.98;68.28;;
64545;Laerm;50936;51.660;5.616;2023-06-22T08:22:44;54.34;40.33;72.10;;
64545;Laerm;50936;51.660;5.616;2023-06-22T08:25:11;51.10;39.81;67.26;;
64545;Laerm;50936;51.660;5.616;2023-06-22T08:27:39;45.80;39.08;56.30;;
64545;Laerm;50936;51.660;5.616;2023-06-22T08:30:09;44.99;38.95;59.43;;
64545;Laerm;50936;51.660;5.616;2023-06-22T08:32:37;57.07;39.58;80.49;;
64545;Laerm;50936;51.660;5.616;2023-06-22T08:35:05;53.30;39.21;82.67;;
64545;Laerm;50936;51.660;5.616;2023-06-22T08:37:36;56.93;39.58;79.40;;
64545;Laerm;50936;51.660;5.616;2023-06-22T08:40:09;54.85;40.53;81.66;;
64545;Laerm;50936;51.660;5.616;2023-06-22T08:42:37;49.67;40.80;72.66;;
64545;Laerm;50936;51.660;5.616;2023-06-22T08:45:05;53.06;40.03;74.66;;
64545;Laerm;50936;51.660;5.616;2023-06-22T08:47:32;47.33;40.89;68.38;;
64545;Laerm;50936;51.660;5.616;2023-06-22T08:49:59;49.67;39.92;73.69;;
64545;Laerm;50936;51.660;5.616;2023-06-22T08:52:28;52.34;39.21;81.22;;
64545;Laerm;50936;51.660;5.616;2023-06-22T08:54:55;54.66;39.46;76.97;;
64545;Laerm;50936;51.660;5.616;2023-06-22T08:57:22;46.60;39.92;68.45;;
64545;Laerm;50936;51.660;5.616;2023-06-22T08:59:49;56.33;39.34;81.83;;
64545;Laerm;50936;51.660;5.616;2023-06-22T09:02:19;45.04;39.92;54.87;;
64545;Laerm;50936;51.660;5.616;2023-06-22T09:04:46;44.67;38.95;67.92;;
64545;Laerm;50936;51.660;5.616;2023-06-22T09:07:13;45.36;40.03;55.71;;
64545;Laerm;50936;51.660;5.616;2023-06-22T09:09:40;45.79;41.14;61.33;;
64545;Laerm;50936;51.660;5.616;2023-06-22T09:12:08;49.39;41.22;75.72;;
64545;Laerm;50936;51.660;5.616;2023-06-22T09:14:34;47.21;40.62;67.33;;
64545;Laerm;50936;51.660;5.616;2023-06-22T09:17:02;46.24;39.81;67.57;;
64545;Laerm;50936;51.660;5.616;2023-06-22T09:19:29;47.67;40.33;67.23;;
64545;Laerm;50936;51.660;5.616;2023-06-22T09:21:55;47.74;40.23;65.42;;
64545;Laerm;50936;51.660;5.616;2023-06-22T09:24:22;47.30;40.13;68.36;;
64545;Laerm;50936;51.660;5.616;2023-06-22T09:26:49;53.84;40.08;81.11;;
64545;Laerm;50936;51.660;5.616;2023-06-22T09:29:17;50.40;40.80;78.65;;
64545;Laerm;50936;51.660;5.616;2023-06-22T09:31:44;53.58;40.43;82.78;;
64545;Laerm;50936;51.660;5.616;2023-06-22T09:34:11;48.26;36.45;76.91;;
64545;Laerm;50936;51.660;5.616;2023-06-22T09:36:38;43.30;36.91;65.20;;
64545;Laerm;50936;51.660;5.616;2023-06-22T09:39:06;41.88;37.12;53.43;;
64545;Laerm;50936;51.660;5.616;2023-06-22T09:41:33;48.17;37.12;73.87;;
64545;Laerm;50936;51.660;5.616;2023-06-22T09:44:00;50.59;37.32;64.04;;
64545;Laerm;50936;51.660;5.616;2023-06-22T09:46:27;47.67;36.69;59.63;;
64545;Laerm;50936;51.660;5.616;2023-06-22T09:48:54;54.84;38.52;68.60;;
64545;Laerm;50936;51.660;5.616;2023-06-22T09:51:22;54.55;38.05;64.83;;
64545;Laerm;50936;51.660;5.616;2023-06-22T09:53:51;50.79;35.94;67.87;;
64545;Laerm;50936;51.660;5.616;2023-06-22T09:56:20;51.96;38.95;63.03;;
64545;Laerm;50936;51.660;5.616;2023-06-22T09:58:47;54.74;38.21;63.28;;
64545;Laerm;50936;51.660;5.616;2023-06-22T10:01:14;54.47;38.81;63.09;;
64545;Laerm;50936;51.660;5.616;2023-06-22T10:03:44;49.56;37.12;65.31;;
64545;Laerm;50936;51.660;5.616;2023-06-22T10:06:11;48.70;35.36;65.52;;
64545;Laerm;50936;51.660;5.616;2023-06-22T10:08:38;52.06;36.45;70.74;;
64545;Laerm;50936;51.660;5.616;2023-06-22T10:11:06;48.72;37.52;75.92;;
64545;Laerm;50936;51.660;5.616;2023-06-22T10:13:32;48.85;39.21;76.39;;
64545;Laerm;50936;51.660;5.616;2023-06-22T10:15:59;50.12;37.88;75.09;;
64545;Laerm;50936;51.660;5.616;2023-06-22T10:18:26;52.20;38.67;73.40;;
64545;Laerm;50936;51.660;5.616;2023-06-22T10:20:53;51.79;38.81;74.75;;
64545;Laerm;50936;51.660;5.616;2023-06-22T10:23:20;49.73;37.88;67.78;;
64545;Laerm;50936;51.660;5.616;2023-06-22T10:25:48;49.70;38.52;71.96;;
64545;Laerm;50936;51.660;5.616;2023-06-22T10:28:15;50.59;38.21;74.39;;
64545;Laerm;50936;51.660;5.616;2023-06-22T10:30:42;50.67;37.87;73.53;;
64545;Laerm;50936;51.660;5.616;2023-06-22T10:33:11;48.97;37.88;67.66;;
64545;Laerm;50936;51.660;5.616;2023-06-22T10:35:39;49.28;36.69;74.04;;
64545;Laerm;50936;51.660;5.616;2023-06-22T10:38:06;47.86;38.52;69.53;;
64545;Laerm;50936;51.660;5.616;2023-06-22T10:40:33;48.37;37.88;68.43;;
64545;Laerm;50936;51.660;5.616;2023-06-22T10:43:00;54.80;37.52;77.96;;
64545;Laerm;50936;51.660;5.616;2023-06-22T10:45:27;60.38;37.12;88.95;;
64545;Laerm;50936;51.660;5.616;2023-06-22T10:47:55;54.03;36.91;77.91;;
64545;Laerm;50936;51.660;5.616;2023-06-22T10:50:22;52.09;37.70;78.37;;
64545;Laerm;50936;51.660;5.616;2023-06-22T10:52:51;52.99;38.95;72.18;;
64545;Laerm;50936;51.660;5.616;2023-06-22T10:55:18;55.67;37.52;71.93;;
64545;Laerm;50936;51.660;5.616;2023-06-22T10:57:45;54.39;38.05;73.79;;
64545;Laerm;50936;51.660;5.616;2023-06-22T11:00:14;49.69;37.12;69.17;;
64545;Laerm;50936;51.660;5.616;2023-06-22T11:02:43;51.48;37.32;68.98;;
64545;Laerm;50936;51.660;5.616;2023-06-22T11:05:11;49.36;36.91;66.64;;
64545;Laerm;50936;51.660;5.616;2023-06-22T11:07:42;48.18;33.90;62.69;;
64545;Laerm;50936;51.660;5.616;2023-06-22T11:10:15;48.65;35.94;66.06;;
64545;Laerm;50936;51.660;5.616;2023-06-22T11:12:42;53.93;37.12;77.58;;
64545;Laerm;50936;51.660;5.616;2023-06-22T11:15:09;52.94;37.12;65.64;;
64545;Laerm;50936;51.660;5.616;2023-06-22T11:17:37;55.13;35.66;64.95;;
64545;Laerm;50936;51.660;5.616;2023-06-22T11:20:05;54.91;37.32;66.94;;
64545;Laerm;50936;51.660;5.616;2023-06-22T11:22:40;55.82;36.91;68.25;;
64545;Laerm;50936;51.660;5.616;2023-06-22T11:25:08;60.62;38.67;81.61;;
64545;Laerm;50936;51.660;5.616;2023-06-22T11:27:35;50.61;38.47;62.81;;
64545;Laerm;50936;51.660;5.616;2023-06-22T11:30:02;51.40;39.21;66.02;;
64545;Laerm;50936;51.660;5.616;2023-06-22T11:32:29;51.41;40.33;63.07;;
64545;Laerm;50936;51.660;5.616;2023-06-22T11:34:57;51.69;40.71;64.47;;
64545;Laerm;50936;51.660;5.616;2023-06-22T11:37:23;50.47;40.43;63.66;;
64545;Laerm;50936;51.660;5.616;2023-06-22T11:39:50;53.92;42.82;74.38;;
64545;Laerm;50936;51.660;5.616;2023-06-22T11:42:32;55.04;43.58;78.72;;
64545;Laerm;50936;51.660;5.616;2023-06-22T11:44:58;52.73;43.19;71.02;;
64545;Laerm;50936;51.660;5.616;2023-06-22T11:47:25;59.41;44.54;78.65;;
64545;Laerm;50936;51.660;5.616;2023-06-22T11:49:52;52.31;42.93;69.42;;
64545;Laerm;50936;51.660;5.616;2023-06-22T11:52:19;52.89;42.71;73.17;;
64545;Laerm;50936;51.660;5.616;2023-06-22T11:54:46;57.39;42.53;72.95;;
64545;Laerm;50936;51.660;5.616;2023-06-22T11:57:13;56.15;42.59;71.05;;
64545;Laerm;50936;51.660;5.616;2023-06-22T11:59:40;57.38;43.68;70.19;;
64545;Laerm;50936;51.660;5.616;2023-06-22T12:02:07;57.76;42.47;72.35;;
64545;Laerm;50936;51.660;5.616;2023-06-22T12:04:35;58.95;42.82;79.43;;
64545;Laerm;50936;51.660;5.616;2023-06-22T12:07:03;57.87;42.82;70.25;;
64545;Laerm;50936;51.660;5.616;2023-06-22T12:09:34;56.72;42.42;69.36;;
64545;Laerm;50936;51.660;5.616;2023-06-22T12:12:00;56.28;43.49;68.39;;
64545;Laerm;50936;51.660;5.616;2023-06-22T12:14:28;54.89;44.76;76.26;;
64545;Laerm;50936;51.660;5.616;2023-06-22T12:16:57;55.12;43.54;74.23;;
64545;Laerm;50936;51.660;5.616;2023-06-22T12:19:24;54.34;43.68;66.47;;
64545;Laerm;50936;51.660;5.616;2023-06-22T12:21:51;54.76;42.76;66.77;;
64545;Laerm;50936;51.660;5.616;2023-06-22T12:24:17;58.92;43.04;76.82;;
64545;Laerm;50936;51.660;5.616;2023-06-22T12:26:44;55.65;42.09;75.49;;
64545;Laerm;50936;51.660;5.616;2023-06-22T12:29:11;58.52;42.53;85.74;;
64545;Laerm;50936;51.660;5.616;2023-06-22T12:31:38;59.15;41.89;84.61;;
64545;Laerm;50936;51.660;5.616;2023-06-22T12:34:06;56.36;41.96;74.72;;
64545;Laerm;50936;51.660;5.616;2023-06-22T12:36:33;56.78;41.61;79.83;;
64545;Laerm;50936;51.660;5.616;2023-06-22T12:38:59;61.26;41.68;83.30;;
64545;Laerm;50936;51.660;5.616;2023-06-22T12:41:26;56.45;41.46;79.48;;
64545;Laerm;50936;51.660;5.616;2023-06-22T12:43:54;60.42;41.96;80.92;;
64545;Laerm;50936;51.660;5.616;2023-06-22T12:46:21;56.79;43.19;77.62;;
64545;Laerm;50936;51.660;5.616;2023-06-22T12:48:48;53.52;42.65;73.81;;
64545;Laerm;50936;51.660;5.616;2023-06-22T12:51:22;48.28;42.09;70.22;;
64545;Laerm;50936;51.660;5.616;2023-06-22T12:53:50;43.52;40.43;49.75;;
64545;Laerm;50936;51.660;5.616;2023-06-22T12:56:17;43.42;40.43;51.02;;
64545;Laerm;50936;51.660;5.616;2023-06-22T12:58:43;44.09;40.23;62.45;;
64545;Laerm;50936;51.660;5.616;2023-06-22T13:01:10;50.80;40.53;74.89;;
64545;Laerm;50936;51.660;5.616;2023-06-22T13:03:37;53.93;40.53;71.15;;
64545;Laerm;50936;51.660;5.616;2023-06-22T13:06:04;52.32;39.46;72.93;;
64545;Laerm;50936;51.660;5.616;2023-06-22T13:08:31;51.92;41.22;69.61;;
64545;Laerm;50936;51.660;5.616;2023-06-22T13:11:18;52.29;38.95;68.74;;
64545;Laerm;50936;51.660;5.616;2023-06-22T13:13:46;53.14;40.23;67.53;;
64545;Laerm;50936;51.660;5.616;2023-06-22T13:16:13;53.22;40.53;66.13;;
64545;Laerm;50936;51.660;5.616;2023-06-22T13:18:40;55.60;41.61;63.91;;
64545;Laerm;50936;51.660;5.616;2023-06-22T13:21:06;48.25;41.22;60.18;;
64545;Laerm;50936;51.660;5.616;2023-06-22T13:23:33;48.81;41.30;71.75;;
64545;Laerm;50936;51.660;5.616;2023-06-22T13:26:00;51.80;40.13;69.63;;
64545;Laerm;50936;51.660;5.616;2023-06-22T13:28:27;52.19;39.99;68.75;;
64545;Laerm;50936;51.660;5.616;2023-06-22T13:30:56;55.07;39.81;77.52;;
64545;Laerm;50936;51.660;5.616;2023-06-22T13:33:23;55.51;41.68;74.42;;
64545;Laerm;50936;51.660;5.616;2023-06-22T13:35:50;44.13;40.89;56.55;;
64545;Laerm;50936;51.660;5.616;2023-06-22T13:38:17;49.63;40.33;77.94;;
64545;Laerm;50936;51.660;5.616;2023-06-22T13:40:44;54.84;40.62;83.26;;
64545;Laerm;50936;51.660;5.616;2023-06-22T13:43:11;52.71;40.80;78.40;;
64545;Laerm;50936;51.660;5.616;2023-06-22T13:45:38;53.41;40.53;70.67;;
64545;Laerm;50936;51.660;5.616;2023-06-22T13:48:05;45.89;40.23;68.77;;
64545;Laerm;50936;51.660;5.616;2023-06-22T13:50:32;49.54;40.89;69.62;;
64545;Laerm;50936;51.660;5.616;2023-06-22T13:52:59;52.32;39.70;73.01;;